Sochi, Russia
Current Conditions -  °F | °C
As of 7:00 AM on Friday 19 Dec 2014 (Local Time) from URSS Reporting Station
Rain Showers Rain Showers  
Wind Chill: 43°   Ceiling: 5000
Heat Index: 48°   Visibility: 6mi
Dew Point: 45°   Wind: 11mph
Humidity: 87%   Direction: 70°ENE
Pressure: 30.09"   Gusts: NA
Location:  43.6°N, 39.73°E
Report Text: URSS 190400Z 07005MPS 9999 -SHRA OVC050CB 09/07 Q1019 NOSIG RMKR02/05005MPS QFE763 06290050 02//////
Loading
Personal Weather Stations






























Interactive Weather Map New forecast layout! Learn more

10-Day Weather Forecast

Advertisements
Track Severe Weather on mobile